Time;durP1;ratioP1;P1;durP2;ratioP2;P2;SDS_P1;SDS_P2;PMS_P1;PMS_P2;Temp;Humidity;BMP_temperature;BMP_pressure;BME280_temperature;BME280_humidity;BME280_pressure;Samples;Min_cycle;Max_cycle;Signal;HPM_P1;HPM_P2
2021/12/07 00:01:21;;;;;;;;;;;18.60;43.00;;;;;;5065349;28;42949;-75
2021/12/07 00:03:47;;;;;;;;;;;18.60;42.90;;;;;;5064625;28;43579;-75
2021/12/07 00:06:13;;;;;;;;;;;18.60;42.90;;;;;;5065396;28;43157;-75
2021/12/07 00:08:42;;;;;;;;;;;18.60;42.90;;;;;;5065699;28;42910;-75
2021/12/07 00:11:09;;;;;;;;;;;18.60;43.00;;;;;;5065852;28;42771;-74
2021/12/07 00:13:36;;;;;;;;;;;18.60;42.90;;;;;;5064506;28;43055;-74
2021/12/07 00:16:03;;;;;;;;;;;18.60;43.00;;;;;;5064991;28;42936;-76
2021/12/07 00:18:29;;;;;;;;;;;18.60;43.20;;;;;;5065594;28;43018;-74
2021/12/07 00:20:54;;;;;;;;;;;18.60;43.00;;;;;;5064713;28;43032;-74
2021/12/07 00:23:20;;;;;;;;;;;18.60;43.00;;;;;;5064827;28;42877;-75
2021/12/07 00:25:46;;;;;;;;;;;18.60;43.00;;;;;;5064824;28;42961;-74
2021/12/07 00:28:12;;;;;;;;;;;18.60;42.90;;;;;;5065076;28;43501;-75
2021/12/07 00:30:37;;;;;;;;;;;18.60;42.90;;;;;;5064568;28;42889;-75
2021/12/07 00:33:32;;;;;;;;;;;18.60;42.90;;;;;;5064931;28;43387;-75
2021/12/07 00:35:58;;;;;;;;;;;18.60;42.90;;;;;;5065218;28;43077;-75
2021/12/07 00:38:25;;;;;;;;;;;18.60;42.90;;;;;;5063860;28;43479;-74
2021/12/07 00:40:51;;;;;;;;;;;18.60;42.90;;;;;;5063885;28;43052;-78
2021/12/07 00:43:17;;;;;;;;;;;18.60;43.00;;;;;;5063976;28;42849;-75
2021/12/07 00:45:45;;;;;;;;;;;18.60;42.90;;;;;;5063221;28;43084;-76
2021/12/07 00:48:11;;;;;;;;;;;18.60;43.00;;;;;;5061004;28;42899;-75
2021/12/07 00:50:37;;;;;;;;;;;18.70;43.00;;;;;;5065704;28;42935;-75
2021/12/07 00:53:05;;;;;;;;;;;18.70;43.00;;;;;;5063624;28;43496;-77
2021/12/07 00:55:32;;;;;;;;;;;18.60;43.00;;;;;;5065814;28;42889;-74
2021/12/07 00:58:00;;;;;;;;;;;18.60;43.00;;;;;;5065485;28;43383;-74
2021/12/07 01:00:27;;;;;;;;;;;18.60;43.00;;;;;;5064153;28;43137;-75
2021/12/07 01:02:54;;;;;;;;;;;18.60;43.00;;;;;;5065215;28;43037;-75
2021/12/07 01:05:26;;;;;;;;;;;18.60;43.00;;;;;;5064679;28;42933;-76
2021/12/07 01:26:44;;;;;;;;;;;18.60;43.00;;;;;;5054916;28;42863;-75
2021/12/07 01:29:09;;;;;;;;;;;19.40;43.50;;;;;;5065300;28;42942;-74
2021/12/07 01:31:49;;;;;;;;;;;18.60;43.10;;;;;;5064673;28;42973;-75
2021/12/07 01:44:47;;;;;;;;;;;18.60;43.20;;;;;;5064089;28;43150;-76
2021/12/07 01:59:32;;;;;;;;;;;18.60;43.20;;;;;;5063881;28;43703;-76
2021/12/07 02:00:44;;;;;;;;;;;18.60;43.20;;;;;;5063757;28;42896;-75
2021/12/07 02:03:09;;;;;;;;;;;18.60;43.20;;;;;;5063756;28;42976;-74
2021/12/07 02:05:35;;;;;;;;;;;18.70;43.20;;;;;;5063678;28;42925;-75
2021/12/07 02:08:02;;;;;;;;;;;18.60;43.20;;;;;;5063680;28;42944;-75
2021/12/07 02:10:30;;;;;;;;;;;18.70;43.30;;;;;;5064374;28;43605;-75
2021/12/07 02:13:02;;;;;;;;;;;18.70;43.30;;;;;;5064353;28;43083;-75
2021/12/07 02:15:29;;;;;;;;;;;18.70;43.30;;;;;;5063712;28;42975;-75
2021/12/07 02:17:55;;;;;;;;;;;18.70;43.50;;;;;;5064242;28;43046;-75
2021/12/07 02:20:21;;;;;;;;;;;18.70;43.30;;;;;;5064031;28;42979;-75
2021/12/07 02:22:46;;;;;;;;;;;18.60;43.40;;;;;;5066160;28;42963;-75
2021/12/07 02:25:14;;;;;;;;;;;18.70;43.40;;;;;;5067131;28;43027;-75
2021/12/07 02:27:40;;;;;;;;;;;18.60;43.60;;;;;;5067892;28;42945;-74
2021/12/07 02:30:07;;;;;;;;;;;18.70;43.50;;;;;;5067478;28;43424;-75
2021/12/07 02:32:32;;;;;;;;;;;18.60;43.70;;;;;;5051437;28;42903;-75
2021/12/07 02:34:59;;;;;;;;;;;18.70;43.60;;;;;;5047003;28;43618;-77
2021/12/07 02:37:26;;;;;;;;;;;18.70;43.70;;;;;;5047273;28;42985;-77
2021/12/07 02:39:51;;;;;;;;;;;18.70;43.80;;;;;;5047381;28;43724;-75
2021/12/07 02:42:17;;;;;;;;;;;18.70;43.80;;;;;;5047413;28;42866;-77
2021/12/07 02:44:42;;;;;;;;;;;18.70;43.80;;;;;;5063340;28;42977;-77
2021/12/07 02:47:09;;;;;;;;;;;18.70;43.80;;;;;;5066829;28;42910;-75
2021/12/07 02:49:34;;;;;;;;;;;18.60;43.70;;;;;;5063856;28;43720;-76
2021/12/07 02:52:00;;;;;;;;;;;18.70;43.80;;;;;;5067206;28;42882;-77
2021/12/07 02:54:26;;;;;;;;;;;18.60;43.80;;;;;;5067229;28;42858;-74
2021/12/07 02:56:51;;;;;;;;;;;18.70;43.80;;;;;;5067569;28;42856;-75
2021/12/07 02:59:18;;;;;;;;;;;18.70;43.90;;;;;;5066498;28;42902;-75
2021/12/07 03:01:51;;;;;;;;;;;18.60;43.90;;;;;;5066697;28;42881;-75
2021/12/07 03:04:21;;;;;;;;;;;18.60;43.90;;;;;;5066888;28;43052;-75
2021/12/07 03:28:22;;;;;;;;;;;18.60;44.10;;;;;;5066234;28;42967;-76
2021/12/07 03:30:48;;;;;;;;;;;18.50;44.60;;;;;;5064687;28;43180;-74
2021/12/07 03:33:14;;;;;;;;;;;18.60;44.10;;;;;;5065276;28;42938;-76
2021/12/07 03:35:39;;;;;;;;;;;18.60;44.20;;;;;;5066831;28;43364;-75
2021/12/07 03:38:06;;;;;;;;;;;18.60;44.20;;;;;;5066567;28;42983;-75
2021/12/07 03:40:32;;;;;;;;;;;18.60;44.20;;;;;;5066186;28;43742;-75
2021/12/07 03:42:59;;;;;;;;;;;18.60;44.10;;;;;;5066731;28;43020;-75
2021/12/07 03:45:25;;;;;;;;;;;18.60;44.50;;;;;;5064652;28;43267;-75
2021/12/07 03:47:51;;;;;;;;;;;18.60;44.30;;;;;;5066370;28;42986;-75
2021/12/07 03:50:16;;;;;;;;;;;18.70;44.20;;;;;;5066259;28;43347;-75
2021/12/07 03:52:42;;;;;;;;;;;18.60;44.20;;;;;;5066574;28;43049;-75
2021/12/07 03:55:08;;;;;;;;;;;18.60;44.30;;;;;;5066613;28;43051;-75
2021/12/07 03:57:33;;;;;;;;;;;18.60;44.30;;;;;;5066422;28;42852;-75
2021/12/07 04:00:00;;;;;;;;;;;18.60;44.30;;;;;;5066355;28;43775;-75
2021/12/07 04:02:25;;;;;;;;;;;18.60;44.30;;;;;;5066165;28;42955;-75
2021/12/07 04:04:58;;;;;;;;;;;18.60;44.20;;;;;;5066459;28;43620;-75
2021/12/07 04:07:24;;;;;;;;;;;18.60;44.30;;;;;;5066601;28;42791;-76
2021/12/07 04:09:50;;;;;;;;;;;18.60;44.20;;;;;;5065661;28;43712;-75
2021/12/07 04:12:15;;;;;;;;;;;18.60;44.20;;;;;;5065985;28;43031;-74
2021/12/07 04:14:41;;;;;;;;;;;18.60;44.30;;;;;;5065608;28;42989;-75
2021/12/07 04:17:06;;;;;;;;;;;18.60;44.30;;;;;;5064915;28;43538;-75
2021/12/07 04:19:32;;;;;;;;;;;18.60;44.40;;;;;;5065699;28;43435;-75
2021/12/07 04:21:57;;;;;;;;;;;18.60;44.30;;;;;;5066160;28;42967;-75
2021/12/07 04:24:27;;;;;;;;;;;18.60;44.30;;;;;;5065968;28;42914;-76
2021/12/07 04:26:53;;;;;;;;;;;18.60;44.40;;;;;;5066410;28;42916;-75
2021/12/07 04:29:19;;;;;;;;;;;18.60;44.40;;;;;;5066383;28;42968;-76
2021/12/07 04:31:44;;;;;;;;;;;18.60;44.40;;;;;;5066357;28;42921;-75
2021/12/07 04:34:10;;;;;;;;;;;18.60;44.40;;;;;;5065708;28;43501;-77
2021/12/07 04:36:35;;;;;;;;;;;18.60;44.30;;;;;;5065753;28;42968;-74
2021/12/07 04:39:01;;;;;;;;;;;18.60;44.40;;;;;;5065650;28;42911;-75
2021/12/07 04:41:32;;;;;;;;;;;18.60;44.40;;;;;;5065583;28;42769;-74
2021/12/07 04:43:58;;;;;;;;;;;18.60;44.40;;;;;;5063682;28;43466;-75
2021/12/07 04:46:33;;;;;;;;;;;18.60;44.50;;;;;;5065363;28;43012;-75
2021/12/07 04:49:34;;;;;;;;;;;18.60;44.30;;;;;;5064364;28;42891;-75
2021/12/07 04:59:59;;;;;;;;;;;18.60;44.40;;;;;;5045579;28;43208;-76
2021/12/07 05:02:25;;;;;;;;;;;18.60;44.40;;;;;;5053277;28;43045;-75
2021/12/07 05:04:50;;;;;;;;;;;18.60;44.50;;;;;;5064302;28;43757;-76
2021/12/07 05:07:26;;;;;;;;;;;18.60;44.30;;;;;;5065228;28;43051;-75
2021/12/07 05:12:38;;;;;;;;;;;18.60;44.50;;;;;;5056755;28;42951;-76
2021/12/07 05:15:17;;;;;;;;;;;18.60;44.30;;;;;;5054311;28;43101;-78
2021/12/07 05:18:02;;;;;;;;;;;18.60;44.10;;;;;;5060317;28;42912;-74
2021/12/07 05:39:36;;;;;;;;;;;18.60;44.20;;;;;;5064371;28;42937;-75
2021/12/07 05:42:02;;;;;;;;;;;18.60;44.10;;;;;;5064194;28;43412;-74
2021/12/07 05:44:28;;;;;;;;;;;18.60;44.10;;;;;;5064307;28;42918;-76
2021/12/07 05:46:53;;;;;;;;;;;18.60;44.00;;;;;;5062360;28;43629;-75
2021/12/07 05:49:19;;;;;;;;;;;18.60;44.20;;;;;;5064115;28;42940;-75
2021/12/07 05:51:44;;;;;;;;;;;18.60;44.10;;;;;;5063382;28;43795;-76
2021/12/07 05:54:10;;;;;;;;;;;18.60;44.10;;;;;;5064198;28;43059;-75
2021/12/07 05:56:35;;;;;;;;;;;18.60;44.10;;;;;;5065100;28;43458;-75
2021/12/07 05:59:01;;;;;;;;;;;18.60;44.10;;;;;;5067516;28;42993;-75
2021/12/07 06:01:26;;;;;;;;;;;18.60;44.20;;;;;;5066873;28;44024;-77
2021/12/07 06:03:52;;;;;;;;;;;18.60;44.10;;;;;;5068256;28;43011;-76
2021/12/07 06:06:17;;;;;;;;;;;18.60;44.20;;;;;;5067779;28;43455;-75
2021/12/07 06:08:43;;;;;;;;;;;18.60;44.10;;;;;;5068248;28;42803;-76
2021/12/07 06:11:09;;;;;;;;;;;18.60;44.20;;;;;;5068028;28;42971;-75
2021/12/07 06:13:35;;;;;;;;;;;18.60;44.20;;;;;;5067838;28;42956;-75
2021/12/07 06:16:05;;;;;;;;;;;18.60;44.10;;;;;;5067243;28;44283;-77
2021/12/07 06:18:31;;;;;;;;;;;18.60;44.10;;;;;;5067491;28;43500;-76
2021/12/07 06:20:57;;;;;;;;;;;18.60;44.10;;;;;;5067113;28;42751;-74
2021/12/07 06:23:22;;;;;;;;;;;18.60;44.20;;;;;;5067807;28;42995;-75
2021/12/07 06:25:48;;;;;;;;;;;18.60;44.20;;;;;;5067007;28;43125;-76
2021/12/07 06:28:14;;;;;;;;;;;18.60;44.20;;;;;;5066683;28;42875;-75
2021/12/07 06:30:41;;;;;;;;;;;18.60;44.30;;;;;;5051827;28;42974;-77
2021/12/07 06:33:07;;;;;;;;;;;18.60;44.30;;;;;;5045469;28;42944;-78
2021/12/07 06:35:32;;;;;;;;;;;18.60;44.30;;;;;;5055467;28;43406;-78
2021/12/07 06:37:58;;;;;;;;;;;18.60;44.30;;;;;;5064677;28;43043;-78
2021/12/07 06:40:23;;;;;;;;;;;18.60;44.30;;;;;;5067140;28;43665;-78
2021/12/07 06:42:49;;;;;;;;;;;18.60;44.30;;;;;;5065872;28;43072;-77
2021/12/07 06:45:15;;;;;;;;;;;18.60;44.70;;;;;;5065239;28;43394;-79
2021/12/07 06:47:40;;;;;;;;;;;18.60;44.80;;;;;;5064230;28;43849;-79
2021/12/07 06:50:07;;;;;;;;;;;18.60;45.00;;;;;;5060299;28;43799;-77
2021/12/07 06:52:33;;;;;;;;;;;18.50;44.70;;;;;;5065994;28;42928;-78
2021/12/07 06:54:59;;;;;;;;;;;18.60;46.20;;;;;;5065639;28;42988;-77
2021/12/07 06:57:25;;;;;;;;;;;18.60;46.20;;;;;;5066203;28;42896;-78
2021/12/07 06:59:51;;;;;;;;;;;18.60;46.10;;;;;;5064225;28;43670;-77
2021/12/07 07:02:17;;;;;;;;;;;18.60;46.20;;;;;;5066698;28;43350;-77
2021/12/07 07:04:44;;;;;;;;;;;18.60;46.60;;;;;;5065645;28;44601;-77
2021/12/07 07:07:10;;;;;;;;;;;18.60;46.40;;;;;;5066041;28;42973;-77
2021/12/07 07:09:35;;;;;;;;;;;18.60;46.60;;;;;;5064621;28;44047;-77
2021/12/07 07:12:01;;;;;;;;;;;18.60;46.50;;;;;;5066001;28;42967;-77
2021/12/07 07:14:26;;;;;;;;;;;18.60;46.70;;;;;;5057434;28;43188;-77
2021/12/07 07:16:52;;;;;;;;;;;18.60;46.70;;;;;;5063345;28;42949;-77
2021/12/07 07:19:17;;;;;;;;;;;18.60;46.80;;;;;;5065057;28;42976;-77
2021/12/07 07:21:43;;;;;;;;;;;18.60;46.90;;;;;;5064526;28;43044;-77
2021/12/07 07:24:09;;;;;;;;;;;18.60;47.00;;;;;;5064543;28;43530;-78
2021/12/07 07:26:34;;;;;;;;;;;18.60;47.00;;;;;;5065455;28;43336;-76
2021/12/07 07:29:00;;;;;;;;;;;18.60;47.00;;;;;;5065545;28;42997;-78
2021/12/07 07:31:25;;;;;;;;;;;18.60;47.30;;;;;;5064791;28;43151;-79
2021/12/07 07:33:53;;;;;;;;;;;19.40;47.70;;;;;;5065275;28;42985;-79
2021/12/07 07:36:19;;;;;;;;;;;18.60;47.40;;;;;;5065494;28;43011;-79
2021/12/07 07:38:44;;;;;;;;;;;18.60;46.60;;;;;;5061244;28;42959;-81
2021/12/07 07:41:10;;;;;;;;;;;18.50;33.70;;;;;;5057747;28;42684;-78
2021/12/07 07:43:35;;;;;;;;;;;18.40;30.30;;;;;;5060798;28;43775;-77
2021/12/07 07:46:01;;;;;;;;;;;18.10;29.10;;;;;;5062164;28;42995;-77
2021/12/07 07:48:27;;;;;;;;;;;;;;;;;;5057353;28;43567;-77
2021/12/07 07:50:53;;;;;;;;;;;17.30;28.50;;;;;;5066164;28;42850;-82
2021/12/07 07:53:19;;;;;;;;;;;17.10;30.10;;;;;;5063638;28;45434;-79
2021/12/07 07:55:45;;;;;;;;;;;17.10;30.00;;;;;;5066608;28;42948;-78
2021/12/07 07:58:11;;;;;;;;;;;17.10;29.70;;;;;;5053176;28;43426;-80
2021/12/07 08:00:38;;;;;;;;;;;17.10;30.70;;;;;;5054378;28;43721;-79
2021/12/07 08:03:04;;;;;;;;;;;17.20;33.10;;;;;;5048882;28;42985;-76
2021/12/07 08:05:30;;;;;;;;;;;17.40;34.30;;;;;;5065095;28;42958;-85
2021/12/07 08:07:55;;;;;;;;;;;17.50;36.60;;;;;;5065984;28;43054;-85
2021/12/07 08:10:27;;;;;;;;;;;17.60;37.20;;;;;;5060597;28;42935;-85
2021/12/07 08:12:53;;;;;;;;;;;17.60;38.10;;;;;;5063136;28;42854;-86
2021/12/07 08:15:19;;;;;;;;;;;17.70;38.50;;;;;;5062627;28;42910;-84
2021/12/07 08:17:44;;;;;;;;;;;17.70;38.90;;;;;;5064484;28;44100;-87
2021/12/07 08:20:10;;;;;;;;;;;17.80;39.30;;;;;;5064408;28;42873;-80
2021/12/07 08:22:36;;;;;;;;;;;17.80;39.70;;;;;;5065993;28;42830;-80
2021/12/07 08:25:01;;;;;;;;;;;17.80;40.10;;;;;;5064618;28;43107;-83
2021/12/07 08:27:27;;;;;;;;;;;17.90;40.90;;;;;;5063510;28;44128;-79
2021/12/07 08:29:53;;;;;;;;;;;17.90;41.60;;;;;;5064798;28;42971;-82
2021/12/07 08:32:18;;;;;;;;;;;17.90;43.20;;;;;;5063719;28;43360;-80
2021/12/07 08:34:44;;;;;;;;;;;18.00;44.60;;;;;;5065549;28;42902;-90
2021/12/07 08:37:09;;;;;;;;;;;18.10;45.70;;;;;;5065556;28;43621;-77
2021/12/07 08:39:37;;;;;;;;;;;18.00;42.30;;;;;;5064946;28;42954;-79
2021/12/07 08:42:03;;;;;;;;;;;18.00;45.50;;;;;;5064908;28;42999;-81
2021/12/07 08:44:29;;;;;;;;;;;18.10;49.10;;;;;;5065456;28;43560;-81
2021/12/07 08:46:54;;;;;;;;;;;18.00;52.30;;;;;;5063971;28;44411;-80
2021/12/07 08:49:21;;;;;;;;;;;18.10;61.90;;;;;;5065277;28;42784;-81
2021/12/07 08:51:47;;;;;;;;;;;18.10;64.60;;;;;;5064729;28;43047;-85
2021/12/07 08:59:45;;;;;;;;;;;18.20;47.00;;;;;;5065901;28;43328;-76
2021/12/07 09:02:17;;;;;;;;;;;18.10;47.60;;;;;;5065362;28;43665;-76
2021/12/07 09:04:43;;;;;;;;;;;18.10;47.80;;;;;;5065422;28;43019;-76
2021/12/07 09:07:09;;;;;;;;;;;18.20;48.70;;;;;;5065295;28;43540;-76
2021/12/07 09:09:36;;;;;;;;;;;18.20;49.10;;;;;;5065823;28;42856;-75
2021/12/07 09:12:03;;;;;;;;;;;18.30;49.50;;;;;;5065825;28;42917;-76
2021/12/07 09:14:30;;;;;;;;;;;18.20;49.80;;;;;;5065476;28;43003;-76
2021/12/07 09:16:56;;;;;;;;;;;18.20;50.00;;;;;;5065053;28;42928;-76
2021/12/07 09:19:21;;;;;;;;;;;18.20;50.30;;;;;;5065302;28;43008;-76
2021/12/07 09:21:47;;;;;;;;;;;18.30;50.40;;;;;;5065250;28;42996;-76
2021/12/07 09:24:12;;;;;;;;;;;18.40;50.50;;;;;;5065448;28;42942;-75
2021/12/07 09:26:38;;;;;;;;;;;18.40;50.50;;;;;;5065298;28;43139;-76
2021/12/07 09:29:04;;;;;;;;;;;18.20;50.60;;;;;;5064139;28;42911;-76
2021/12/07 09:31:30;;;;;;;;;;;18.30;50.80;;;;;;5065550;28;43586;-76
2021/12/07 09:33:55;;;;;;;;;;;18.20;51.00;;;;;;5065289;28;42968;-76
2021/12/07 09:36:21;;;;;;;;;;;18.20;51.00;;;;;;5064816;28;43312;-75
2021/12/07 09:38:47;;;;;;;;;;;18.30;51.00;;;;;;5064957;28;42965;-77
2021/12/07 09:41:14;;;;;;;;;;;18.30;51.20;;;;;;5064477;28;43368;-76
2021/12/07 09:43:41;;;;;;;;;;;18.40;51.30;;;;;;5064935;28;42905;-76
2021/12/07 09:46:07;;;;;;;;;;;18.40;51.40;;;;;;5065155;28;43550;-77
2021/12/07 09:48:33;;;;;;;;;;;18.40;51.50;;;;;;5065231;28;42785;-76
2021/12/07 09:50:59;;;;;;;;;;;18.40;51.60;;;;;;5065049;28;43177;-76
2021/12/07 09:53:25;;;;;;;;;;;18.50;51.60;;;;;;5064908;28;43082;-76
2021/12/07 09:55:51;;;;;;;;;;;18.30;51.60;;;;;;5064855;28;43010;-76
2021/12/07 09:58:17;;;;;;;;;;;18.30;51.70;;;;;;5065111;28;42924;-75
2021/12/07 10:00:44;;;;;;;;;;;18.40;51.70;;;;;;5064763;28;43539;-75
2021/12/07 10:03:10;;;;;;;;;;;18.30;51.60;;;;;;5064772;28;43013;-76
2021/12/07 10:05:36;;;;;;;;;;;18.50;51.80;;;;;;5065234;28;43172;-76
2021/12/07 10:08:03;;;;;;;;;;;18.50;51.90;;;;;;5064940;28;42932;-76
2021/12/07 10:10:33;;;;;;;;;;;18.50;51.80;;;;;;5064762;28;43051;-75
2021/12/07 10:12:59;;;;;;;;;;;18.40;51.80;;;;;;5064589;28;43107;-76
2021/12/07 10:15:24;;;;;;;;;;;18.30;51.50;;;;;;5064236;28;43435;-77
2021/12/07 10:18:07;;;;;;;;;;;18.40;51.40;;;;;;5064849;28;42856;-76
2021/12/07 10:20:41;;;;;;;;;;;18.50;50.90;;;;;;5064542;28;43379;-76
2021/12/07 10:23:13;;;;;;;;;;;18.50;50.80;;;;;;5064742;28;42996;-76
2021/12/07 10:25:40;;;;;;;;;;;18.50;50.80;;;;;;5064599;28;43094;-76
2021/12/07 10:28:23;;;;;;;;;;;18.80;51.30;;;;;;5064745;28;42908;-77
2021/12/07 10:30:49;;;;;;;;;;;18.50;51.00;;;;;;5064384;28;43723;-75
2021/12/07 10:33:16;;;;;;;;;;;18.40;51.00;;;;;;5064713;28;43155;-77
2021/12/07 10:35:41;;;;;;;;;;;18.50;50.90;;;;;;5063797;28;43395;-75
2021/12/07 10:38:10;;;;;;;;;;;18.40;50.90;;;;;;5063670;28;42889;-76
2021/12/07 10:40:35;;;;;;;;;;;18.50;50.30;;;;;;5064782;28;43641;-76
2021/12/07 10:43:01;;;;;;;;;;;18.50;50.80;;;;;;5065754;28;42854;-76
2021/12/07 10:45:27;;;;;;;;;;;18.50;50.90;;;;;;5068082;28;43018;-76
2021/12/07 10:47:53;;;;;;;;;;;18.60;50.70;;;;;;5067906;28;43025;-76
2021/12/07 10:50:19;;;;;;;;;;;18.60;50.70;;;;;;5067381;28;43401;-75
2021/12/07 10:52:45;;;;;;;;;;;18.60;50.90;;;;;;5067501;28;43033;-76
2021/12/07 10:55:12;;;;;;;;;;;18.50;50.80;;;;;;5067656;28;43689;-76
2021/12/07 10:57:44;;;;;;;;;;;18.60;50.60;;;;;;5067688;28;43016;-76
2021/12/07 11:00:23;;;;;;;;;;;18.60;50.20;;;;;;5067192;28;43465;-76
2021/12/07 11:02:59;;;;;;;;;;;18.70;50.40;;;;;;5067086;28;42941;-76
2021/12/07 11:05:26;;;;;;;;;;;18.60;50.30;;;;;;5066331;28;44131;-76
2021/12/07 11:07:52;;;;;;;;;;;18.70;50.70;;;;;;5067734;28;42844;-76
2021/12/07 11:10:27;;;;;;;;;;;18.50;50.70;;;;;;5067594;28;43465;-76
2021/12/07 11:15:33;;;;;;;;;;;18.60;50.20;;;;;;5066986;28;43293;-76
2021/12/07 11:18:08;;;;;;;;;;;18.70;50.80;;;;;;5067621;28;42887;-76
2021/12/07 11:20:34;;;;;;;;;;;18.60;50.70;;;;;;5066419;28;42755;-76
2021/12/07 11:23:09;;;;;;;;;;;18.60;50.80;;;;;;5066922;28;42771;-76
2021/12/07 11:31:32;;;;;;;;;;;18.60;50.30;;;;;;5067249;28;43167;-76
2021/12/07 11:34:11;;;;;;;;;;;18.70;50.40;;;;;;5067573;28;43002;-76
2021/12/07 11:36:49;;;;;;;;;;;18.50;50.40;;;;;;5066739;28;43558;-76
2021/12/07 11:39:38;;;;;;;;;;;18.60;50.90;;;;;;5066645;28;43191;-76
2021/12/07 11:42:09;;;;;;;;;;;18.70;50.40;;;;;;5063976;27;43422;-76
2021/12/07 11:44:37;;;;;;;;;;;18.70;50.40;;;;;;5066917;28;42985;-76
2021/12/07 11:47:04;;;;;;;;;;;18.70;50.90;;;;;;5066707;28;43046;-75
2021/12/07 11:49:31;;;;;;;;;;;18.70;50.90;;;;;;5066371;28;42860;-76
2021/12/07 11:51:57;;;;;;;;;;;18.70;50.90;;;;;;5066207;28;42751;-77
2021/12/07 11:54:24;;;;;;;;;;;19.10;51.00;;;;;;5065234;28;42991;-76
2021/12/07 11:56:50;;;;;;;;;;;18.70;50.80;;;;;;5066763;28;43990;-76
2021/12/07 11:59:16;;;;;;;;;;;18.70;50.70;;;;;;5065414;28;43040;-76
2021/12/07 12:01:43;;;;;;;;;;;18.70;50.80;;;;;;5066568;28;42870;-76
2021/12/07 12:04:08;;;;;;;;;;;18.70;50.80;;;;;;5067070;28;42894;-76
2021/12/07 12:06:35;;;;;;;;;;;18.60;50.80;;;;;;5066706;28;42915;-75
2021/12/07 12:09:00;;;;;;;;;;;18.80;50.80;;;;;;5066840;28;42855;-76
2021/12/07 12:11:49;;;;;;;;;;;18.70;50.80;;;;;;5065974;28;42985;-75
2021/12/07 12:14:27;;;;;;;;;;;18.80;50.30;;;;;;5055439;28;43026;-76
2021/12/07 12:16:58;;;;;;;;;;;18.70;50.40;;;;;;5066536;28;42929;-76
2021/12/07 12:19:32;;;;;;;;;;;18.70;50.70;;;;;;5065405;28;58568;-76
2021/12/07 12:22:31;;;;;;;;;;;18.80;50.40;;;;;;5066383;28;43472;-76
2021/12/07 12:24:58;;;;;;;;;;;18.70;50.30;;;;;;5053423;28;42869;-76
2021/12/07 12:27:30;;;;;;;;;;;18.60;50.80;;;;;;5064706;28;44712;-76
2021/12/07 12:29:57;;;;;;;;;;;18.80;50.90;;;;;;5066068;28;43008;-76
2021/12/07 12:32:30;;;;;;;;;;;18.80;51.00;;;;;;5066620;28;43586;-77
2021/12/07 12:34:57;;;;;;;;;;;18.90;50.50;;;;;;5066228;28;42834;-76
2021/12/07 12:37:24;;;;;;;;;;;18.90;50.90;;;;;;5065387;28;42973;-77
2021/12/07 12:39:52;;;;;;;;;;;18.80;50.90;;;;;;5065505;28;43023;-76
2021/12/07 12:42:23;;;;;;;;;;;18.90;51.00;;;;;;5065328;28;43540;-76
2021/12/07 12:44:48;;;;;;;;;;;18.80;50.90;;;;;;5065683;28;43024;-76
2021/12/07 12:47:18;;;;;;;;;;;18.80;50.90;;;;;;5065585;28;43884;-76
2021/12/07 12:49:43;;;;;;;;;;;18.90;51.00;;;;;;5066027;28;42948;-76
2021/12/07 12:52:10;;;;;;;;;;;18.80;51.00;;;;;;5065872;28;43430;-76
2021/12/07 12:54:40;;;;;;;;;;;18.80;50.90;;;;;;5065626;28;43055;-76
2021/12/07 12:57:10;;;;;;;;;;;18.80;50.50;;;;;;5065517;28;43819;-76
2021/12/07 12:59:37;;;;;;;;;;;18.90;50.50;;;;;;5065804;28;42879;-76
2021/12/07 13:02:02;;;;;;;;;;;18.80;51.10;;;;;;5065843;28;43044;-76
2021/12/07 13:04:30;;;;;;;;;;;18.80;51.00;;;;;;5065947;28;42956;-77
2021/12/07 13:07:46;;;;;;;;;;;18.90;51.20;;;;;;5065890;27;42941;-76
2021/12/07 13:09:46;;;;;;;;;;;19.10;50.60;;;;;;5060951;28;42922;-76
2021/12/07 13:12:14;;;;;;;;;;;19.00;51.10;;;;;;5065082;28;42828;-76
2021/12/07 13:14:40;;;;;;;;;;;18.90;50.90;;;;;;5065206;28;42919;-76
2021/12/07 13:17:07;;;;;;;;;;;19.10;51.10;;;;;;5065541;28;43479;-76
2021/12/07 13:19:53;;;;;;;;;;;18.80;50.90;;;;;;5065411;28;43013;-76
2021/12/07 13:22:19;;;;;;;;;;;18.90;50.90;;;;;;5060791;28;42969;-75
2021/12/07 13:24:46;;;;;;;;;;;19.10;51.60;;;;;;5065551;28;43000;-76
2021/12/07 13:27:15;;;;;;;;;;;19.00;51.10;;;;;;5065095;28;43387;-77
2021/12/07 13:29:45;;;;;;;;;;;20.90;51.40;;;;;;5065073;28;42911;-75
2021/12/07 13:32:10;;;;;;;;;;;18.90;50.40;;;;;;5065380;28;43829;-74
2021/12/07 13:34:37;;;;;;;;;;;18.80;50.80;;;;;;5065346;28;42986;-75
2021/12/07 13:37:04;;;;;;;;;;;18.90;50.90;;;;;;5065046;28;42982;-75
2021/12/07 13:39:32;;;;;;;;;;;19.00;51.00;;;;;;5065106;28;43012;-75
2021/12/07 13:42:00;;;;;;;;;;;18.90;50.90;;;;;;5065129;28;42940;-75
2021/12/07 13:44:31;;;;;;;;;;;19.00;50.40;;;;;;5065071;28;42963;-75
2021/12/07 13:46:58;;;;;;;;;;;18.90;50.40;;;;;;5065133;28;42959;-75
2021/12/07 13:49:23;;;;;;;;;;;19.00;50.90;;;;;;5064958;28;42980;-75
2021/12/07 13:51:49;;;;;;;;;;;19.00;50.90;;;;;;5064611;28;43460;-75
2021/12/07 13:54:16;;;;;;;;;;;18.90;50.90;;;;;;5064639;28;42914;-75
2021/12/07 13:56:42;;;;;;;;;;;19.00;50.90;;;;;;5065288;28;42866;-77
2021/12/07 13:59:09;;;;;;;;;;;19.10;50.90;;;;;;5065335;28;42963;-76
2021/12/07 14:01:36;;;;;;;;;;;18.90;50.90;;;;;;5064805;28;42822;-76
2021/12/07 14:04:04;;;;;;;;;;;18.90;50.90;;;;;;5063611;28;42935;-76
2021/12/07 14:06:30;;;;;;;;;;;18.90;50.90;;;;;;5064899;28;42821;-75
2021/12/07 14:09:06;;;;;;;;;;;19.00;50.90;;;;;;5064864;28;42965;-74
2021/12/07 14:11:32;;;;;;;;;;;19.00;50.40;;;;;;5064196;28;42964;-75
2021/12/07 14:13:57;;;;;;;;;;;19.00;51.00;;;;;;5063972;28;42941;-74
2021/12/07 14:16:25;;;;;;;;;;;19.10;50.90;;;;;;5064959;28;43354;-75
2021/12/07 14:18:51;;;;;;;;;;;18.90;50.80;;;;;;5067604;28;42860;-75
2021/12/07 14:21:16;;;;;;;;;;;19.10;51.00;;;;;;5068756;28;43473;-74
2021/12/07 14:23:46;;;;;;;;;;;18.90;50.90;;;;;;5068431;28;43006;-74
2021/12/07 14:26:11;;;;;;;;;;;19.10;50.50;;;;;;5068133;28;43060;-75
2021/12/07 14:28:41;;;;;;;;;;;19.00;51.00;;;;;;5068049;28;42810;-74
2021/12/07 14:31:15;;;;;;;;;;;19.10;50.50;;;;;;5067718;28;42945;-74
2021/12/07 14:33:48;;;;;;;;;;;19.00;50.40;;;;;;5068209;28;42948;-75
2021/12/07 14:36:37;;;;;;;;;;;19.10;50.50;;;;;;5068050;28;42838;-76
2021/12/07 14:39:07;;;;;;;;;;;19.00;50.50;;;;;;5064539;28;42896;-74
2021/12/07 14:41:42;;;;;;;;;;;19.30;50.70;;;;;;5067776;28;43063;-74
2021/12/07 14:44:08;;;;;;;;;;;19.10;51.40;;;;;;5067364;28;43031;-74
2021/12/07 14:46:34;;;;;;;;;;;18.90;50.90;;;;;;5068185;28;42886;-74
2021/12/07 14:48:59;;;;;;;;;;;19.00;51.00;;;;;;5067973;28;43019;-75
2021/12/07 14:51:27;;;;;;;;;;;19.00;51.00;;;;;;5067596;28;42846;-74
2021/12/07 14:53:57;;;;;;;;;;;19.20;51.10;;;;;;5067273;28;42909;-74
2021/12/07 14:56:23;;;;;;;;;;;19.00;51.00;;;;;;5067496;28;43796;-75
2021/12/07 14:58:50;;;;;;;;;;;19.00;51.00;;;;;;5067440;28;42951;-75
2021/12/07 15:01:17;;;;;;;;;;;19.10;51.00;;;;;;5067541;28;42835;-74
2021/12/07 15:03:44;;;;;;;;;;;19.70;51.30;;;;;;5067666;28;42942;-74
2021/12/07 15:06:11;;;;;;;;;;;19.10;51.00;;;;;;5067097;28;43553;-76
2021/12/07 15:08:37;;;;;;;;;;;19.10;51.00;;;;;;5067492;28;42973;-76
2021/12/07 15:11:03;;;;;;;;;;;19.10;51.00;;;;;;5067527;28;42943;-76
2021/12/07 15:13:29;;;;;;;;;;;19.20;51.10;;;;;;5067986;28;42933;-76
2021/12/07 15:15:57;;;;;;;;;;;19.10;51.00;;;;;;5066934;28;43290;-76
2021/12/07 15:18:27;;;;;;;;;;;19.10;50.90;;;;;;5067180;28;43047;-77
2021/12/07 15:20:52;;;;;;;;;;;19.10;50.40;;;;;;5067193;28;42983;-77
2021/12/07 15:23:19;;;;;;;;;;;19.10;51.00;;;;;;5067068;28;43016;-80
2021/12/07 15:25:48;;;;;;;;;;;19.00;50.90;;;;;;5067409;28;43525;-76
2021/12/07 15:28:13;;;;;;;;;;;19.00;50.50;;;;;;5065120;28;43144;-76
2021/12/07 15:30:39;;;;;;;;;;;19.00;50.90;;;;;;5066750;28;43467;-76
2021/12/07 15:33:04;;;;;;;;;;;19.10;51.00;;;;;;5067291;28;43021;-76
2021/12/07 15:35:30;;;;;;;;;;;19.00;50.90;;;;;;5067020;28;43024;-76
2021/12/07 15:37:56;;;;;;;;;;;18.40;51.00;;;;;;5067281;28;42924;-78
2021/12/07 15:40:22;;;;;;;;;;;19.20;51.00;;;;;;5066406;28;43520;-76
2021/12/07 15:42:48;;;;;;;;;;;19.10;50.90;;;;;;5066998;28;42965;-76
2021/12/07 15:45:13;;;;;;;;;;;18.40;51.50;;;;;;5066946;28;43099;-76
2021/12/07 15:47:40;;;;;;;;;;;19.20;50.90;;;;;;5067524;28;43038;-77
2021/12/07 15:50:08;;;;;;;;;;;19.00;50.80;;;;;;5066802;28;43973;-76
2021/12/07 15:52:43;;;;;;;;;;;19.10;50.90;;;;;;5066531;28;43079;-75
2021/12/07 15:55:17;;;;;;;;;;;21.70;51.40;;;;;;5064669;28;44498;-76
2021/12/07 15:57:44;;;;;;;;;;;19.20;50.20;;;;;;5066668;28;42972;-76
2021/12/07 16:00:12;;;;;;;;;;;19.20;50.80;;;;;;5066408;28;42956;-76
2021/12/07 16:02:37;;;;;;;;;;;19.20;50.60;;;;;;5066347;28;42921;-77
2021/12/07 16:05:05;;;;;;;;;;;19.20;50.90;;;;;;5066539;28;43264;-75
2021/12/07 16:07:30;;;;;;;;;;;19.20;50.70;;;;;;5066809;28;42925;-76